Time;durP1;ratioP1;P1;durP2;ratioP2;P2;SDS_P1;SDS_P2;PMS_P1;PMS_P2;Temp;Humidity;BMP_temperature;BMP_pressure;BME280_temperature;BME280_humidity;BME280_pressure;Samples;Min_cycle;Max_cycle;Signal;HPM_P1;HPM_P2
2024/01/26 00:01:32;;;;;;;8.48;4.07;;;14.90;39.40;;;;;;7401718;19;19923;-73
2024/01/26 00:03:58;;;;;;;8.95;3.80;;;14.90;39.90;;;;;;7403349;19;19923;-75
2024/01/26 00:06:24;;;;;;;7.13;3.58;;;14.90;39.70;;;;;;7403605;19;19986;-75
2024/01/26 00:08:50;;;;;;;7.53;3.70;;;14.80;38.90;;;;;;7403511;19;19922;-75
2024/01/26 00:11:18;;;;;;;5.95;2.90;;;14.70;38.90;;;;;;7400889;19;19938;-73
2024/01/26 00:13:44;;;;;;;6.82;2.88;;;14.80;37.90;;;;;;7404813;19;19918;-75
2024/01/26 00:16:10;;;;;;;6.10;2.80;;;14.80;37.00;;;;;;7401106;19;19942;-74
2024/01/26 00:18:36;;;;;;;7.82;3.70;;;14.80;36.50;;;;;;7403173;19;22479;-75
2024/01/26 00:21:03;;;;;;;8.63;3.50;;;14.70;39.30;;;;;;7402011;19;19989;-75
2024/01/26 00:23:30;;;;;;;7.43;3.53;;;14.60;39.30;;;;;;7403964;19;19919;-76
2024/01/26 00:25:57;;;;;;;7.38;3.67;;;14.70;39.20;;;;;;7402360;19;19929;-75
2024/01/26 00:28:22;;;;;;;6.75;3.40;;;14.60;40.00;;;;;;7401067;19;20355;-75
2024/01/26 00:30:48;;;;;;;6.43;3.33;;;14.50;41.60;;;;;;7402823;19;19928;-75
2024/01/26 00:33:15;;;;;;;8.80;3.50;;;14.40;42.80;;;;;;7403153;19;19922;-74
2024/01/26 00:35:41;;;;;;;7.18;3.35;;;14.50;42.50;;;;;;7403241;19;20340;-73
2024/01/26 00:38:07;;;;;;;8.93;3.95;;;14.40;44.70;;;;;;7401477;19;19922;-74
2024/01/26 00:40:32;;;;;;;8.57;4.55;;;14.30;45.80;;;;;;7400665;19;21295;-75
2024/01/26 00:42:58;;;;;;;9.10;5.30;;;14.20;46.90;;;;;;7401963;19;20374;-74
2024/01/26 00:45:24;;;;;;;10.75;6.13;;;14.10;49.00;;;;;;7399948;19;19931;-75
2024/01/26 00:47:49;;;;;;;12.07;5.72;;;14.00;52.00;;;;;;7404225;19;19945;-74
2024/01/26 00:50:15;;;;;;;10.30;5.55;;;14.00;53.10;;;;;;7379068;19;19919;-74
2024/01/26 00:52:41;;;;;;;11.30;5.57;;;13.90;53.70;;;;;;7404622;19;19989;-75
2024/01/26 00:55:08;;;;;;;11.80;5.70;;;13.90;53.40;;;;;;7400356;19;19950;-74
2024/01/26 00:57:34;;;;;;;9.52;5.35;;;13.90;52.70;;;;;;7401626;19;19930;-74
2024/01/26 00:59:59;;;;;;;10.60;5.03;;;14.00;51.60;;;;;;7400831;19;19918;-75
2024/01/26 01:02:25;;;;;;;10.07;4.60;;;14.00;50.60;;;;;;7404616;19;19922;-74
2024/01/26 01:04:51;;;;;;;9.05;4.32;;;14.10;49.50;;;;;;7402741;19;19911;-74
2024/01/26 01:07:17;;;;;;;10.05;3.55;;;14.10;50.10;;;;;;7400639;19;19915;-74
2024/01/26 01:09:43;;;;;;;7.28;3.80;;;14.00;49.20;;;;;;7399259;19;20347;-75
2024/01/26 01:12:08;;;;;;;6.93;2.97;;;14.00;47.10;;;;;;7400865;19;19926;-75
2024/01/26 01:14:36;;;;;;;5.53;2.90;;;14.10;44.00;;;;;;7401415;19;19950;-74
2024/01/26 01:17:08;;;;;;;7.00;2.72;;;14.20;40.60;;;;;;7402685;19;20172;-75
2024/01/26 01:19:35;;;;;;;6.10;3.03;;;14.40;37.50;;;;;;7404161;19;20308;-74
2024/01/26 01:22:01;;;;;;;6.45;2.63;;;14.50;36.90;;;;;;7405476;19;19938;-74
2024/01/26 01:24:27;;;;;;;7.55;2.92;;;14.60;34.90;;;;;;7402859;19;19911;-74
2024/01/26 01:26:55;;;;;;;6.65;2.97;;;14.70;33.80;;;;;;7405625;19;19922;-74
2024/01/26 01:29:20;;;;;;;6.20;2.40;;;14.70;32.70;;;;;;7398694;19;19922;-74
2024/01/26 01:31:46;;;;;;;5.68;2.67;;;14.80;32.20;;;;;;7403168;19;20489;-74
2024/01/26 01:34:12;;;;;;;6.20;2.60;;;14.80;31.70;;;;;;7403431;19;19926;-74
2024/01/26 01:36:38;;;;;;;5.00;2.40;;;14.90;31.10;;;;;;7404202;19;19911;-74
2024/01/26 01:39:03;;;;;;;4.75;2.40;;;14.80;31.00;;;;;;7401999;19;19922;-74
2024/01/26 01:41:29;;;;;;;5.95;2.60;;;14.80;30.60;;;;;;7402199;19;19918;-73
2024/01/26 01:43:56;;;;;;;5.72;2.63;;;14.80;30.00;;;;;;7400248;19;19919;-74
2024/01/26 01:46:21;;;;;;;5.63;2.58;;;14.80;29.80;;;;;;7399825;19;21308;-75
2024/01/26 01:48:51;;;;;;;6.00;2.40;;;14.80;28.60;;;;;;7401808;19;20343;-74
2024/01/26 01:51:17;;;;;;;6.40;1.92;;;14.90;28.50;;;;;;7402059;19;19922;-75
2024/01/26 01:53:43;;;;;;;4.55;1.88;;;14.80;28.40;;;;;;7399584;19;19930;-76
2024/01/26 01:56:11;;;;;;;5.93;2.42;;;14.90;27.60;;;;;;7402489;19;19942;-75
2024/01/26 01:58:41;;;;;;;4.50;2.17;;;14.80;27.90;;;;;;7401194;19;19922;-73
2024/01/26 02:01:07;;;;;;;4.35;2.05;;;14.80;27.70;;;;;;7399598;19;19925;-75
2024/01/26 02:03:33;;;;;;;4.80;1.90;;;14.80;27.40;;;;;;7404465;19;19914;-74
2024/01/26 02:05:59;;;;;;;5.10;2.00;;;14.80;27.40;;;;;;7405130;19;19921;-75
2024/01/26 02:08:25;;;;;;;4.68;1.98;;;14.80;27.40;;;;;;7397960;19;19915;-75
2024/01/26 02:10:51;;;;;;;4.80;2.33;;;14.80;27.70;;;;;;7402594;19;20335;-75
2024/01/26 02:13:16;;;;;;;4.43;1.95;;;14.80;27.60;;;;;;7399606;19;19923;-75
2024/01/26 02:15:42;;;;;;;6.35;2.05;;;14.80;27.10;;;;;;7398287;19;19926;-75
2024/01/26 02:18:08;;;;;;;5.32;2.17;;;14.80;27.20;;;;;;7399282;19;19922;-74
2024/01/26 02:20:34;;;;;;;7.03;3.17;;;14.80;26.60;;;;;;7402275;19;19945;-74
2024/01/26 02:23:00;;;;;;;5.60;2.60;;;14.80;26.40;;;;;;7400795;19;20259;-75
2024/01/26 02:25:25;;;;;;;4.68;2.00;;;14.80;26.30;;;;;;7400290;19;19919;-74
2024/01/26 02:27:52;;;;;;;5.03;1.77;;;14.80;26.30;;;;;;7401428;19;19921;-74
2024/01/26 02:30:18;;;;;;;5.57;2.00;;;14.80;26.00;;;;;;7399820;19;19935;-74
2024/01/26 02:32:44;;;;;;;4.35;2.00;;;14.80;25.90;;;;;;7398639;19;20269;-74
2024/01/26 02:35:10;;;;;;;4.35;1.70;;;14.70;26.10;;;;;;7398108;19;19919;-76
2024/01/26 02:37:36;;;;;;;4.30;1.85;;;14.70;26.60;;;;;;7399545;19;19915;-75
2024/01/26 02:40:02;;;;;;;5.22;2.15;;;14.70;26.80;;;;;;7399451;19;19953;-75
2024/01/26 02:42:27;;;;;;;4.90;2.00;;;14.70;26.70;;;;;;7401299;19;20346;-75
2024/01/26 02:44:53;;;;;;;6.30;1.80;;;14.70;26.70;;;;;;7401694;19;20355;-75
2024/01/26 02:47:19;;;;;;;4.82;2.00;;;14.60;27.20;;;;;;7400211;19;20248;-74
2024/01/26 02:49:45;;;;;;;3.88;1.80;;;14.60;27.00;;;;;;7401096;19;19985;-74
2024/01/26 02:52:10;;;;;;;4.57;2.13;;;14.50;27.10;;;;;;7398454;19;20723;-74
2024/01/26 02:54:36;;;;;;;5.18;1.90;;;14.50;27.30;;;;;;7400304;19;20239;-75
2024/01/26 02:57:02;;;;;;;4.15;1.80;;;14.40;27.50;;;;;;7400911;19;19968;-74
2024/01/26 02:59:28;;;;;;;4.50;2.05;;;14.40;27.70;;;;;;7409331;19;20338;-74
2024/01/26 03:01:54;;;;;;;4.15;1.90;;;14.30;27.90;;;;;;7407135;19;19919;-75
2024/01/26 03:04:20;;;;;;;6.07;2.25;;;14.30;27.90;;;;;;7404557;19;20273;-74
2024/01/26 03:06:47;;;;;;;3.72;1.80;;;14.40;27.70;;;;;;7407041;19;19911;-75
2024/01/26 03:09:14;;;;;;;5.25;1.80;;;14.50;27.50;;;;;;7404864;19;19914;-76
2024/01/26 03:11:42;;;;;;;4.95;2.00;;;14.50;27.60;;;;;;7407901;19;19938;-76
2024/01/26 03:14:09;;;;;;;3.97;1.85;;;14.40;27.80;;;;;;7405429;19;19998;-74
2024/01/26 03:16:38;;;;;;;4.43;1.73;;;14.40;27.80;;;;;;7404918;19;20290;-76
2024/01/26 03:19:04;;;;;;;4.97;1.92;;;14.40;27.80;;;;;;7389795;19;19919;-73
2024/01/26 03:21:29;;;;;;;4.68;2.33;;;14.30;28.00;;;;;;7384586;19;19933;-75
2024/01/26 03:23:55;;;;;;;5.60;1.83;;;14.40;28.20;;;;;;7407759;19;19921;-78
2024/01/26 03:26:21;;;;;;;5.40;2.30;;;14.40;27.80;;;;;;7407961;19;20804;-74
2024/01/26 03:28:47;;;;;;;4.85;1.73;;;14.40;27.80;;;;;;7405412;19;19907;-77
2024/01/26 03:31:13;;;;;;;4.53;2.20;;;14.50;27.70;;;;;;7404614;19;19957;-75
2024/01/26 03:33:41;;;;;;;4.60;1.58;;;14.40;27.70;;;;;;7404785;19;19915;-74
2024/01/26 03:36:07;;;;;;;4.80;1.60;;;14.40;27.90;;;;;;7404796;19;19922;-75
2024/01/26 03:38:33;;;;;;;5.35;2.00;;;14.40;27.80;;;;;;7405224;19;19956;-74
2024/01/26 03:41:00;;;;;;;5.88;1.92;;;14.40;27.80;;;;;;7407754;19;19918;-75
2024/01/26 03:43:25;;;;;;;4.65;1.80;;;14.50;27.80;;;;;;7404866;19;19926;-76
2024/01/26 03:45:51;;;;;;;4.55;2.10;;;14.30;27.90;;;;;;7407674;19;19927;-73
2024/01/26 03:48:17;;;;;;;4.95;1.67;;;14.40;28.50;;;;;;7405607;19;19922;-75
2024/01/26 03:50:44;;;;;;;4.68;2.85;;;14.30;28.80;;;;;;7407342;19;20795;-75
2024/01/26 03:53:09;;;;;;;4.88;2.00;;;14.30;29.20;;;;;;7407081;19;19925;-75
2024/01/26 03:55:37;;;;;;;4.70;2.10;;;14.30;29.40;;;;;;7407610;19;19914;-75
2024/01/26 03:58:03;;;;;;;5.53;2.45;;;14.40;30.00;;;;;;7407075;19;19922;-74
2024/01/26 04:00:29;;;;;;;5.03;2.55;;;14.50;29.80;;;;;;7405411;19;20529;-73
2024/01/26 04:02:55;;;;;;;4.53;2.10;;;14.50;30.10;;;;;;7405855;19;19955;-74
2024/01/26 04:05:22;;;;;;;5.82;2.80;;;14.60;30.00;;;;;;7404425;19;19915;-74
2024/01/26 04:07:48;;;;;;;5.72;2.45;;;14.80;30.00;;;;;;7406312;19;19914;-75
2024/01/26 04:10:14;;;;;;;6.57;3.10;;;14.90;29.70;;;;;;7402063;19;21810;-75
2024/01/26 04:12:40;;;;;;;6.25;2.63;;;14.80;29.70;;;;;;7406076;19;20011;-74
2024/01/26 04:15:05;;;;;;;5.50;2.65;;;14.90;29.90;;;;;;7404823;19;19907;-73
2024/01/26 04:17:31;;;;;;;5.85;3.00;;;15.00;29.60;;;;;;7405034;19;20339;-74
2024/01/26 04:19:57;;;;;;;6.30;2.95;;;15.00;29.50;;;;;;7403171;19;19918;-74
2024/01/26 04:22:23;;;;;;;5.78;3.13;;;15.00;29.40;;;;;;7403746;19;20788;-74
2024/01/26 04:24:49;;;;;;;6.18;2.38;;;15.00;29.40;;;;;;7404821;19;19918;-75
2024/01/26 04:27:14;;;;;;;6.65;2.65;;;15.00;29.30;;;;;;7400792;19;19926;-75
2024/01/26 04:29:41;;;;;;;6.65;2.50;;;14.90;29.50;;;;;;7403106;19;19930;-75
2024/01/26 04:32:07;;;;;;;6.43;2.55;;;15.00;29.50;;;;;;7359369;19;20362;-74
2024/01/26 04:34:37;;;;;;;4.82;2.42;;;15.10;29.20;;;;;;7403531;19;19914;-74
2024/01/26 04:37:03;;;;;;;4.95;2.33;;;15.20;28.60;;;;;;7403653;19;19929;-74
2024/01/26 04:39:29;;;;;;;5.05;2.17;;;15.30;28.30;;;;;;7406538;19;20401;-75
2024/01/26 04:41:55;;;;;;;5.15;2.40;;;15.30;27.90;;;;;;7408370;19;19914;-74
2024/01/26 04:44:20;;;;;;;4.40;2.38;;;15.40;27.50;;;;;;7406401;19;19918;-74
2024/01/26 04:46:46;;;;;;;5.88;2.70;;;15.40;27.40;;;;;;7405279;19;19931;-74
2024/01/26 04:49:12;;;;;;;6.07;2.50;;;15.20;27.40;;;;;;7402842;19;19911;-73
2024/01/26 04:51:38;;;;;;;4.82;2.25;;;15.30;27.80;;;;;;7406251;19;19922;-74
2024/01/26 04:54:04;;;;;;;5.05;2.53;;;15.20;27.70;;;;;;7403172;19;20311;-74
2024/01/26 04:56:29;;;;;;;6.13;2.78;;;15.10;28.40;;;;;;7405868;19;19929;-74
2024/01/26 04:58:55;;;;;;;5.28;2.47;;;15.20;28.20;;;;;;7406224;19;20247;-74
2024/01/26 05:01:21;;;;;;;5.13;2.55;;;15.10;28.20;;;;;;7404202;19;19921;-74
2024/01/26 05:03:47;;;;;;;5.75;2.65;;;14.90;29.00;;;;;;7405574;19;19990;-75
2024/01/26 05:06:13;;;;;;;5.22;2.55;;;14.90;29.30;;;;;;7398065;19;19990;-74
2024/01/26 05:08:40;;;;;;;4.70;2.30;;;14.90;29.50;;;;;;7401108;19;19922;-75
2024/01/26 05:11:05;;;;;;;5.57;2.60;;;15.00;29.50;;;;;;7402517;19;19918;-75
2024/01/26 05:13:31;;;;;;;5.20;2.20;;;14.90;29.50;;;;;;7403795;19;19930;-76
2024/01/26 05:15:57;;;;;;;6.47;2.60;;;15.10;28.90;;;;;;7403119;19;19918;-74
2024/01/26 05:18:23;;;;;;;5.25;2.50;;;14.90;29.50;;;;;;7402853;19;20434;-74
2024/01/26 05:20:48;;;;;;;5.97;2.50;;;14.80;30.00;;;;;;7402274;19;20332;-75
2024/01/26 05:23:14;;;;;;;5.03;2.42;;;14.80;30.10;;;;;;7401364;19;19932;-74
2024/01/26 05:25:41;;;;;;;4.78;2.20;;;14.80;30.80;;;;;;7401522;19;19922;-74
2024/01/26 05:28:07;;;;;;;5.38;2.42;;;14.70;30.80;;;;;;7399760;19;19926;-74
2024/01/26 05:30:33;;;;;;;6.72;2.70;;;14.70;31.00;;;;;;7401964;19;19919;-74
2024/01/26 05:33:01;;;;;;;7.68;3.30;;;14.70;31.40;;;;;;7400317;19;20802;-73
2024/01/26 05:35:26;;;;;;;5.70;2.47;;;14.60;32.00;;;;;;7401806;19;19918;-75
2024/01/26 05:37:52;;;;;;;6.20;2.20;;;14.50;33.00;;;;;;7402141;19;19919;-74
2024/01/26 05:40:18;;;;;;;4.35;2.20;;;14.60;32.60;;;;;;7400795;19;19948;-75
2024/01/26 05:42:44;;;;;;;4.90;2.30;;;14.60;32.00;;;;;;7401505;19;19942;-75
2024/01/26 05:45:10;;;;;;;5.05;2.53;;;14.50;32.50;;;;;;7400317;19;20355;-74
2024/01/26 05:47:37;;;;;;;5.75;2.67;;;14.60;32.60;;;;;;7402445;19;19914;-75
2024/01/26 05:50:03;;;;;;;4.97;2.42;;;14.40;33.10;;;;;;7401352;19;19933;-74
2024/01/26 05:52:28;;;;;;;4.90;2.25;;;14.40;33.90;;;;;;7404108;19;19911;-73
2024/01/26 05:54:54;;;;;;;5.22;2.70;;;14.40;33.50;;;;;;7405196;19;19945;-75
2024/01/26 05:57:20;;;;;;;5.78;2.30;;;14.40;33.80;;;;;;7402853;19;19922;-74
2024/01/26 05:59:46;;;;;;;4.90;2.40;;;14.40;34.00;;;;;;7403414;19;19918;-74
2024/01/26 06:02:12;;;;;;;5.63;2.80;;;14.50;34.40;;;;;;7398927;19;19918;-74
2024/01/26 06:04:38;;;;;;;5.25;2.15;;;14.50;34.20;;;;;;7379335;19;19922;-75
2024/01/26 06:07:04;;;;;;;4.80;2.30;;;14.40;34.60;;;;;;7400402;19;19921;-74
2024/01/26 06:09:30;;;;;;;6.75;2.60;;;14.40;35.30;;;;;;7401386;19;19925;-76
2024/01/26 06:11:55;;;;;;;6.30;3.08;;;14.40;34.90;;;;;;7401955;19;19960;-74
2024/01/26 06:14:21;;;;;;;5.18;2.45;;;14.30;35.40;;;;;;7398015;19;19922;-75
2024/01/26 06:16:49;;;;;;;6.32;2.95;;;14.30;36.00;;;;;;7401554;19;19907;-75
2024/01/26 06:19:14;;;;;;;5.20;2.55;;;14.20;36.50;;;;;;7399909;19;20327;-75
2024/01/26 06:21:40;;;;;;;6.47;2.95;;;14.20;37.10;;;;;;7403124;19;19919;-74
2024/01/26 06:24:06;;;;;;;5.80;3.20;;;14.30;38.00;;;;;;7399409;19;19970;-74
2024/01/26 06:26:31;;;;;;;7.00;3.03;;;14.30;37.40;;;;;;7401217;19;19915;-75
2024/01/26 06:28:57;;;;;;;6.60;2.72;;;14.30;38.10;;;;;;7401134;19;19986;-75
2024/01/26 06:31:26;;;;;;;5.55;2.75;;;14.20;38.50;;;;;;7400579;19;19978;-75
2024/01/26 06:33:54;;;;;;;6.82;3.10;;;14.20;39.30;;;;;;7402246;19;19919;-75
2024/01/26 06:36:19;;;;;;;5.80;3.15;;;14.10;40.10;;;;;;7402744;19;20590;-74
2024/01/26 06:38:45;;;;;;;4.65;2.38;;;14.10;41.20;;;;;;7404039;19;19921;-75
2024/01/26 06:41:11;;;;;;;4.15;1.90;;;14.10;41.10;;;;;;7399363;19;19923;-75
2024/01/26 06:43:37;;;;;;;6.28;2.83;;;14.10;41.30;;;;;;7402282;19;19938;-74
2024/01/26 06:46:03;;;;;;;6.45;2.47;;;14.10;41.80;;;;;;7407081;19;19929;-74
2024/01/26 06:48:28;;;;;;;4.45;2.13;;;14.00;42.20;;;;;;7401462;19;19922;-73
2024/01/26 06:50:54;;;;;;;5.55;2.45;;;14.00;43.40;;;;;;7401275;19;19942;-74
2024/01/26 06:53:21;;;;;;;5.38;2.20;;;14.10;42.00;;;;;;7405899;19;19961;-77
2024/01/26 06:55:47;;;;;;;6.93;2.30;;;14.10;41.80;;;;;;7406406;19;19922;-76
2024/01/26 06:58:13;;;;;;;6.47;2.50;;;14.00;41.90;;;;;;7381378;19;19982;-75
2024/01/26 07:00:40;;;;;;;5.35;2.10;;;14.00;42.90;;;;;;7403647;19;19935;-75
2024/01/26 07:03:05;;;;;;;;;;;14.00;43.00;;;;;;7404948;19;20660;-75
2024/01/26 07:05:31;;;;;;;4.63;2.38;;;13.90;43.30;;;;;;7406742;19;19918;-76
2024/01/26 07:07:57;;;;;;;4.78;2.17;;;13.80;44.30;;;;;;7404931;19;20466;-76
2024/01/26 07:10:26;;;;;;;4.22;2.03;;;13.80;44.80;;;;;;7400343;19;19911;-75
2024/01/26 07:12:51;;;;;;;5.47;2.38;;;13.80;45.60;;;;;;7402999;19;19978;-75
2024/01/26 07:15:17;;;;;;;4.63;2.03;;;13.90;45.30;;;;;;7380742;19;19926;-77
2024/01/26 07:17:43;;;;;;;4.82;2.38;;;14.00;45.20;;;;;;7404807;19;19922;-75
2024/01/26 07:20:10;;;;;;;4.60;2.10;;;14.10;44.80;;;;;;7401717;19;19954;-76
2024/01/26 07:22:36;;;;;;;4.93;2.22;;;14.10;44.50;;;;;;7405559;19;19918;-76
2024/01/26 07:25:09;;;;;;;5.32;2.22;;;14.20;44.30;;;;;;7405310;19;19917;-75
2024/01/26 07:27:35;;;;;;;6.57;2.90;;;14.20;43.40;;;;;;7400882;19;19922;-76
2024/01/26 07:30:05;;;;;;;6.32;3.30;;;14.30;43.30;;;;;;7404230;19;20604;-75
2024/01/26 07:32:31;;;;;;;5.85;2.22;;;14.20;44.10;;;;;;7400719;19;19922;-77
2024/01/26 07:35:00;;;;;;;4.68;2.28;;;14.20;44.90;;;;;;7405139;19;19922;-76
2024/01/26 07:37:25;;;;;;;6.25;2.17;;;14.20;44.60;;;;;;7400028;19;19950;-76
2024/01/26 07:39:51;;;;;;;4.13;2.03;;;14.30;44.20;;;;;;7403663;19;19915;-76
2024/01/26 07:42:17;;;;;;;5.53;2.10;;;14.30;43.30;;;;;;7403061;19;20319;-74
2024/01/26 07:44:43;;;;;;;4.07;1.73;;;14.40;43.00;;;;;;7410120;19;19949;-75
2024/01/26 07:47:08;;;;;;;5.25;1.92;;;14.50;42.50;;;;;;7405749;19;19915;-77
2024/01/26 07:49:34;;;;;;;4.72;1.73;;;14.60;41.50;;;;;;7409099;19;19921;-76
2024/01/26 07:52:00;;;;;;;5.55;2.70;;;14.90;39.60;;;;;;7404393;19;19934;-76
2024/01/26 07:54:25;;;;;;;15.90;3.75;;;14.90;38.80;;;;;;7406340;19;19919;-76
2024/01/26 07:56:51;;;;;;;5.55;2.90;;;15.00;41.50;;;;;;7406658;19;19938;-76
2024/01/26 07:59:18;;;;;;;6.50;2.28;;;15.10;39.40;;;;;;7407621;19;19922;-76
2024/01/26 08:01:46;;;;;;;5.18;2.00;;;15.20;37.70;;;;;;7407520;19;19919;-76
2024/01/26 08:04:12;;;;;;;4.90;2.03;;;15.20;37.70;;;;;;7394297;19;19915;-75
2024/01/26 08:06:38;;;;;;;5.90;2.60;;;15.40;36.60;;;;;;7406568;19;20673;-76
2024/01/26 08:09:04;;;;;;;8.43;2.08;;;15.50;35.80;;;;;;7405391;19;19918;-75
2024/01/26 08:11:31;;;;;;;5.55;2.40;;;15.60;35.00;;;;;;7406614;19;19914;-76
2024/01/26 08:13:58;;;;;;;5.28;2.15;;;15.60;35.30;;;;;;7406458;19;19923;-76
2024/01/26 08:16:24;;;;;;;5.90;1.92;;;15.80;33.20;;;;;;7407268;19;19918;-75
2024/01/26 08:18:50;;;;;;;4.63;1.65;;;16.00;32.10;;;;;;7415683;19;19925;-78
2024/01/26 08:21:15;;;;;;;6.22;1.73;;;16.20;31.10;;;;;;7408977;19;19919;-73
2024/01/26 08:23:42;;;;;;;4.32;1.60;;;16.40;30.50;;;;;;7406987;19;19911;-69
2024/01/26 08:26:08;;;;;;;4.75;1.80;;;16.50;29.70;;;;;;7408325;19;19918;-75
2024/01/26 08:28:34;;;;;;;6.30;1.75;;;16.60;29.40;;;;;;7409363;19;19990;-77
2024/01/26 08:31:01;;;;;;;5.03;2.08;;;16.70;29.10;;;;;;7411071;19;19914;-82
2024/01/26 08:33:26;;;;;;;;;;;16.90;28.60;;;;;;7406188;19;19917;-78
2024/01/26 08:35:52;;;;;;;3.65;1.92;;;18.80;25.90;;;;;;7413362;19;20336;-80
2024/01/26 08:38:18;;;;;;;5.90;2.72;;;20.40;19.00;;;;;;7411000;19;19929;-76
2024/01/26 08:40:43;;;;;;;4.43;1.73;;;21.70;14.90;;;;;;7401285;19;19914;-80
2024/01/26 08:43:09;;;;;;;4.35;2.00;;;22.30;11.90;;;;;;7412799;19;19981;-79
2024/01/26 08:45:37;;;;;;;6.70;2.40;;;22.50;10.00;;;;;;7423073;19;19919;-81
2024/01/26 08:48:04;;;;;;;9.73;3.17;;;22.80;8.80;;;;;;7418000;19;19918;-82
2024/01/26 08:50:31;;;;;;;8.63;2.35;;;23.20;8.50;;;;;;7419082;19;19919;-80
2024/01/26 08:52:58;;;;;;;6.72;2.30;;;23.50;6.40;;;;;;7396096;19;20345;-79
2024/01/26 08:55:25;;;;;;;4.13;2.10;;;23.50;5.10;;;;;;7401637;19;20568;-81
2024/01/26 08:57:51;;;;;;;6.10;2.17;;;23.80;4.80;;;;;;7417294;19;19919;-79
2024/01/26 09:00:19;;;;;;;4.35;1.27;;;24.70;3.60;;;;;;7397486;19;19922;-78
2024/01/26 09:02:45;;;;;;;6.70;2.13;;;24.50;2.00;;;;;;7402100;19;19934;-81
2024/01/26 09:05:11;;;;;;;6.75;2.15;;;25.00;1.40;;;;;;7399108;19;20255;-77
2024/01/26 09:07:38;;;;;;;4.80;2.05;;;25.20;1.00;;;;;;7419166;19;19930;-79
2024/01/26 09:10:05;;;;;;;8.40;2.75;;;24.80;1.00;;;;;;7419990;19;19954;-81
2024/01/26 09:12:44;;;;;;;6.43;1.83;;;25.10;1.00;;;;;;7385912;19;19923;-84
2024/01/26 09:33:55;;;;;;;3.67;1.77;;;21.50;3.70;;;;;;7296380;19;3147058;-86
2024/01/26 09:36:21;;;;;;;3.72;1.80;;;20.70;7.10;;;;;;7454375;19;19914;-83
2024/01/26 09:38:47;;;;;;;3.15;1.63;;;20.40;6.70;;;;;;7459472;19;19918;-81
2024/01/26 09:41:13;;;;;;;4.15;1.40;;;20.50;7.20;;;;;;7457445;19;20557;-82
2024/01/26 09:43:39;;;;;;;2.92;1.05;;;20.50;7.20;;;;;;7462287;19;19911;-83
2024/01/26 09:46:05;;;;;;;2.72;1.38;;;20.50;6.90;;;;;;7459465;19;19918;-82
2024/01/26 09:48:33;;;;;;;4.68;1.42;;;20.60;6.40;;;;;;7458472;19;19917;-82
2024/01/26 09:51:00;;;;;;;3.75;1.90;;;21.00;6.50;;;;;;7456529;19;19907;-83
2024/01/26 09:53:29;;;;;;;4.60;1.70;;;21.40;5.00;;;;;;7459074;19;19962;-82
2024/01/26 09:55:55;;;;;;;4.28;1.45;;;22.00;4.10;;;;;;7457459;19;19954;-82
2024/01/26 09:58:21;;;;;;;3.35;1.33;;;21.90;3.90;;;;;;7455535;19;20200;-80
2024/01/26 10:00:48;;;;;;;3.75;1.70;;;21.90;4.50;;;;;;7457791;19;19927;-81
2024/01/26 10:03:14;;;;;;;4.05;1.58;;;22.40;3.20;;;;;;7454496;19;19910;-81
2024/01/26 10:05:40;;;;;;;2.53;1.33;;;22.30;3.30;;;;;;7458139;19;19918;-81
2024/01/26 10:08:10;;;;;;;4.10;1.50;;;22.50;3.20;;;;;;7450210;19;19972;-81
2024/01/26 10:10:37;;;;;;;4.20;1.63;;;22.60;2.40;;;;;;7455145;19;19923;-80
2024/01/26 10:13:06;;;;;;;4.55;2.05;;;21.90;3.40;;;;;;7449638;19;19915;-80
2024/01/26 10:15:32;;;;;;;4.30;1.65;;;22.10;3.20;;;;;;7451380;19;20228;-80
2024/01/26 10:17:58;;;;;;;4.72;1.77;;;22.20;3.20;;;;;;7457634;19;19933;-80
2024/01/26 10:20:24;;;;;;;6.32;2.40;;;22.70;2.90;;;;;;7454381;19;19936;-79
2024/01/26 10:22:52;;;;;;;3.75;2.08;;;22.40;2.50;;;;;;7448481;19;19910;-79
2024/01/26 10:25:17;;;;;;;3.58;1.73;;;22.80;2.70;;;;;;7452439;19;19918;-80
2024/01/26 10:27:43;;;;;;;2.97;1.50;;;23.20;1.70;;;;;;7459545;19;19932;-81
2024/01/26 10:30:11;;;;;;;3.25;1.33;;;23.30;1.20;;;;;;7434206;19;19921;-80
2024/01/26 10:32:38;;;;;;;4.85;1.67;;;23.00;1.40;;;;;;7453990;19;19919;-80
2024/01/26 10:35:05;;;;;;;3.78;1.95;;;23.20;1.00;;;;;;7426590;19;19939;-80
2024/01/26 10:37:33;;;;;;;3.25;1.58;;;23.30;1.10;;;;;;7432606;19;19914;-79
2024/01/26 10:40:07;;;;;;;3.40;1.70;;;23.20;1.00;;;;;;7426337;19;19923;-80
2024/01/26 10:42:36;;;;;;;4.97;1.70;;;23.50;1.00;;;;;;7418458;19;19906;-80
2024/01/26 10:45:04;;;;;;;3.38;1.48;;;23.70;1.00;;;;;;7430462;19;19934;-80
2024/01/26 10:47:33;;;;;;;3.10;1.73;;;23.80;1.00;;;;;;7421770;19;21762;-80
2024/01/26 10:50:06;;;;;;;4.82;1.63;;;23.70;1.00;;;;;;7424890;19;19922;-81
2024/01/26 10:52:35;;;;;;;4.20;1.90;;;22.90;1.00;;;;;;7425652;19;19914;-81
2024/01/26 10:55:03;;;;;;;5.50;2.60;;;23.60;1.00;;;;;;7428178;19;19914;-81
2024/01/26 10:57:29;;;;;;;4.20;1.88;;;24.20;1.00;;;;;;7424400;19;20352;-80
2024/01/26 10:59:57;;;;;;;4.38;1.83;;;24.20;1.00;;;;;;7427412;19;19919;-80
2024/01/26 11:02:34;;;;;;;11.93;3.25;;;23.80;1.00;;;;;;7425778;19;19970;-82
2024/01/26 11:05:03;;;;;;;11.25;3.17;;;24.10;1.00;;;;;;7430938;19;19927;-81
2024/01/26 11:07:34;;;;;;;6.72;2.85;;;23.90;1.00;;;;;;7430760;19;19933;-83
2024/01/26 11:10:02;;;;;;;7.40;3.17;;;24.40;1.00;;;;;;7430147;19;19947;-82
2024/01/26 11:12:29;;;;;;;7.35;3.08;;;24.80;1.00;;;;;;7428228;19;19954;-81
2024/01/26 11:15:10;;;;;;;8.73;2.95;;;24.90;1.00;;;;;;7426963;19;19918;-82
2024/01/26 11:17:53;;;;;;;11.10;3.55;;;24.80;1.00;;;;;;7427550;19;20327;-83
2024/01/26 11:20:32;;;;;;;7.82;2.95;;;24.90;1.00;;;;;;7425613;19;19926;-82
2024/01/26 11:23:04;;;;;;;5.63;2.75;;;24.10;1.00;;;;;;7431705;19;19987;-84
2024/01/26 11:25:35;;;;;;;7.13;3.03;;;24.10;1.00;;;;;;7427322;19;19907;-84
2024/01/26 11:28:02;;;;;;;6.68;3.28;;;24.80;1.00;;;;;;7428912;19;19929;-83
2024/01/26 11:30:29;;;;;;;4.63;2.83;;;24.60;1.00;;;;;;7427747;19;19938;-82
2024/01/26 11:32:56;;;;;;;10.27;3.58;;;24.70;1.00;;;;;;7427167;19;19906;-81
2024/01/26 11:35:23;;;;;;;15.13;3.92;;;24.40;1.00;;;;;;7424792;19;19938;-83
2024/01/26 11:37:53;;;;;;;;;;;24.30;1.00;;;;;;7429854;19;19918;-82
2024/01/26 11:40:20;;;;;;;7.20;3.15;;;24.20;1.00;;;;;;7426309;19;19918;-83
2024/01/26 11:42:50;;;;;;;8.70;2.97;;;24.20;1.00;;;;;;7429335;19;19914;-83
2024/01/26 11:45:44;;;;;;;9.98;3.85;;;23.60;1.00;;;;;;7402155;19;19919;-84
2024/01/26 11:48:10;;;;;;;7.70;2.95;;;24.80;1.00;;;;;;7421180;19;19971;-83
2024/01/26 11:50:37;;;;;;;7.43;2.83;;;25.40;1.00;;;;;;7427533;19;20469;-83
2024/01/26 11:53:04;;;;;;;5.40;2.60;;;25.70;1.00;;;;;;7426106;19;19951;-81
2024/01/26 11:55:30;;;;;;;5.70;2.30;;;24.50;1.00;;;;;;7428075;19;19918;-82
2024/01/26 11:57:56;;;;;;;;;;;24.50;1.00;;;;;;7429309;19;19937;-83
2024/01/26 12:00:22;;;;;;;8.57;3.10;;;24.10;1.00;;;;;;7426601;19;19943;-83
2024/01/26 12:02:49;;;;;;;5.07;2.90;;;24.70;1.00;;;;;;7428010;19;19919;-84
2024/01/26 12:05:16;;;;;;;11.02;2.72;;;24.30;1.00;;;;;;7427033;19;19922;-83
2024/01/26 12:07:42;;;;;;;11.77;3.80;;;25.30;1.00;;;;;;7424319;19;19922;-85
2024/01/26 12:10:13;;;;;;;6.78;2.97;;;26.40;1.00;;;;;;7424767;19;19914;-83
2024/01/26 12:12:40;;;;;;;6.90;3.50;;;25.20;1.00;;;;;;7424925;19;19915;-82
2024/01/26 12:15:10;;;;;;;6.10;3.10;;;26.20;1.00;;;;;;7423953;19;19914;-82
2024/01/26 12:17:39;;;;;;;6.70;3.40;;;26.60;1.00;;;;;;7424952;19;19934;-84
2024/01/26 12:20:09;;;;;;;8.27;2.85;;;25.70;1.00;;;;;;7402472;19;19923;-83
2024/01/26 12:22:36;;;;;;;6.95;3.25;;;26.80;1.00;;;;;;7425555;19;19914;-83
2024/01/26 12:25:07;;;;;;;5.78;2.92;;;27.70;1.00;;;;;;7424821;19;19934;-83
2024/01/26 12:27:34;;;;;;;8.80;3.75;;;27.80;1.00;;;;;;7423246;19;19938;-84
2024/01/26 12:30:00;;;;;;;13.00;4.15;;;27.80;1.00;;;;;;7422707;19;19911;-81
2024/01/26 12:32:25;;;;;;;;;;;28.60;1.00;;;;;;7417984;19;19918;-81
2024/01/26 12:34:51;;;;;;;9.93;4.03;;;29.00;1.00;;;;;;7422344;19;19915;-81
2024/01/26 12:37:17;;;;;;;;;;;27.60;1.00;;;;;;7430890;19;19914;-81
2024/01/26 12:39:43;;;;;;;10.18;3.75;;;27.60;1.00;;;;;;7425800;19;19918;-82
2024/01/26 12:42:08;;;;;;;7.43;3.60;;;26.50;1.00;;;;;;7425753;19;19918;-82
2024/01/26 12:44:36;;;;;;;;;;;26.60;1.00;;;;;;7428860;19;19915;-81
2024/01/26 12:47:03;;;;;;;8.35;3.20;;;26.00;1.00;;;;;;7429527;19;19906;-81
2024/01/26 12:49:48;;;;;;;7.68;3.85;;;26.30;1.00;;;;;;7432612;19;19921;-84
2024/01/26 12:52:18;;;;;;;12.95;4.28;;;27.30;1.00;;;;;;7421801;19;19946;-82
2024/01/26 12:54:45;;;;;;;11.02;3.70;;;27.40;1.00;;;;;;7429580;19;19933;-83
2024/01/26 12:57:11;;;;;;;10.63;3.72;;;27.80;1.00;;;;;;7418773;19;19925;-86
2024/01/26 12:59:37;;;;;;;10.07;3.92;;;28.20;1.00;;;;;;7425064;19;19935;-84
2024/01/26 13:02:04;;;;;;;9.90;4.28;;;27.60;1.00;;;;;;7424101;19;19930;-83
2024/01/26 13:04:31;;;;;;;11.88;5.10;;;27.60;1.00;;;;;;7424738;19;19918;-83
2024/01/26 13:06:57;;;;;;;8.82;4.55;;;27.70;1.00;;;;;;7427687;19;19914;-83